sensor_id;sensor_type;location;lat;lon;timestamp;temperature;humidity
22145;DHT22;11238;48.730;11.566;2022-09-17T00:02:23;10.50;99.90
22145;DHT22;11238;48.730;11.566;2022-09-17T00:04:50;10.50;99.90
22145;DHT22;11238;48.730;11.566;2022-09-17T00:07:16;10.50;99.90
22145;DHT22;11238;48.730;11.566;2022-09-17T00:09:42;10.40;99.90
22145;DHT22;11238;48.730;11.566;2022-09-17T00:12:09;10.40;99.90
22145;DHT22;11238;48.730;11.566;2022-09-17T00:14:35;10.40;99.90
22145;DHT22;11238;48.730;11.566;2022-09-17T00:17:01;10.30;99.90
22145;DHT22;11238;48.730;11.566;2022-09-17T00:19:27;10.30;99.90
22145;DHT22;11238;48.730;11.566;2022-09-17T00:21:54;10.30;99.90
22145;DHT22;11238;48.730;11.566;2022-09-17T00:24:19;10.20;99.90
22145;DHT22;11238;48.730;11.566;2022-09-17T00:26:47;10.20;99.90
22145;DHT22;11238;48.730;11.566;2022-09-17T00:29:13;10.20;99.90
22145;DHT22;11238;48.730;11.566;2022-09-17T00:31:39;10.10;99.90
22145;DHT22;11238;48.730;11.566;2022-09-17T00:34:06;10.10;99.90
22145;DHT22;11238;48.730;11.566;2022-09-17T00:36:34;10.10;99.90
22145;DHT22;11238;48.730;11.566;2022-09-17T00:39:01;10.00;99.90
22145;DHT22;11238;48.730;11.566;2022-09-17T00:41:29;10.00;99.90
22145;DHT22;11238;48.730;11.566;2022-09-17T00:44:01;10.00;99.90
22145;DHT22;11238;48.730;11.566;2022-09-17T00:46:35;10.00;99.90
22145;DHT22;11238;48.730;11.566;2022-09-17T00:49:10;10.00;99.90
22145;DHT22;11238;48.730;11.566;2022-09-17T00:51:40;9.90;99.90
22145;DHT22;11238;48.730;11.566;2022-09-17T00:54:09;9.90;99.90
22145;DHT22;11238;48.730;11.566;2022-09-17T00:56:37;9.90;99.90
22145;DHT22;11238;48.730;11.566;2022-09-17T00:59:04;9.80;99.90
22145;DHT22;11238;48.730;11.566;2022-09-17T01:01:31;9.80;99.90
22145;DHT22;11238;48.730;11.566;2022-09-17T01:03:57;9.80;99.90
22145;DHT22;11238;48.730;11.566;2022-09-17T01:06:40;9.80;99.90
22145;DHT22;11238;48.730;11.566;2022-09-17T01:31:44;9.50;99.90
22145;DHT22;11238;48.730;11.566;2022-09-17T01:34:40;9.40;99.90
22145;DHT22;11238;48.730;11.566;2022-09-17T01:42:37;9.50;99.90
22145;DHT22;11238;48.730;11.566;2022-09-17T01:47:47;9.40;99.90
22145;DHT22;11238;48.730;11.566;2022-09-17T01:50:19;9.40;99.90
22145;DHT22;11238;48.730;11.566;2022-09-17T01:52:48;9.40;99.90
22145;DHT22;11238;48.730;11.566;2022-09-17T01:55:17;9.40;99.90
22145;DHT22;11238;48.730;11.566;2022-09-17T01:58:08;9.30;99.90
22145;DHT22;11238;48.730;11.566;2022-09-17T02:00:37;9.30;99.90
22145;DHT22;11238;48.730;11.566;2022-09-17T02:03:15;9.30;99.90
22145;DHT22;11238;48.730;11.566;2022-09-17T02:05:53;9.30;99.90
22145;DHT22;11238;48.730;11.566;2022-09-17T02:08:26;9.30;99.90
22145;DHT22;11238;48.730;11.566;2022-09-17T02:10:55;9.20;99.90
22145;DHT22;11238;48.730;11.566;2022-09-17T02:13:31;9.20;99.90
22145;DHT22;11238;48.730;11.566;2022-09-17T02:16:05;9.10;99.90
22145;DHT22;11238;48.730;11.566;2022-09-17T02:24:21;9.10;99.90
22145;DHT22;11238;48.730;11.566;2022-09-17T02:27:05;9.10;99.90
22145;DHT22;11238;48.730;11.566;2022-09-17T02:29:35;9.10;99.90
22145;DHT22;11238;48.730;11.566;2022-09-17T02:32:02;9.20;99.90
22145;DHT22;11238;48.730;11.566;2022-09-17T02:34:28;9.20;99.90
22145;DHT22;11238;48.730;11.566;2022-09-17T02:36:55;9.20;99.90
22145;DHT22;11238;48.730;11.566;2022-09-17T02:39:23;9.20;99.90
22145;DHT22;11238;48.730;11.566;2022-09-17T02:42:21;9.20;99.90
22145;DHT22;11238;48.730;11.566;2022-09-17T02:51:26;9.20;99.90
22145;DHT22;11238;48.730;11.566;2022-09-17T02:56:52;9.30;99.90
22145;DHT22;11238;48.730;11.566;2022-09-17T03:02:23;9.30;99.90
22145;DHT22;11238;48.730;11.566;2022-09-17T03:04:52;9.30;99.90
22145;DHT22;11238;48.730;11.566;2022-09-17T03:07:22;9.30;99.90
22145;DHT22;11238;48.730;11.566;2022-09-17T03:09:47;9.30;99.90
22145;DHT22;11238;48.730;11.566;2022-09-17T03:12:14;9.30;99.90
22145;DHT22;11238;48.730;11.566;2022-09-17T03:14:40;9.30;99.90
22145;DHT22;11238;48.730;11.566;2022-09-17T03:17:06;9.30;99.90
22145;DHT22;11238;48.730;11.566;2022-09-17T03:19:32;9.30;99.90
22145;DHT22;11238;48.730;11.566;2022-09-17T03:21:58;9.40;99.90
22145;DHT22;11238;48.730;11.566;2022-09-17T03:24:24;9.40;99.90
22145;DHT22;11238;48.730;11.566;2022-09-17T03:26:50;9.40;99.90
22145;DHT22;11238;48.730;11.566;2022-09-17T03:29:16;9.40;99.90
22145;DHT22;11238;48.730;11.566;2022-09-17T03:31:42;9.40;99.90
22145;DHT22;11238;48.730;11.566;2022-09-17T03:34:08;9.40;99.90
22145;DHT22;11238;48.730;11.566;2022-09-17T03:36:34;9.40;99.90
22145;DHT22;11238;48.730;11.566;2022-09-17T03:39:00;9.40;99.90
22145;DHT22;11238;48.730;11.566;2022-09-17T03:41:26;9.40;99.90
22145;DHT22;11238;48.730;11.566;2022-09-17T03:43:52;9.50;99.90
22145;DHT22;11238;48.730;11.566;2022-09-17T03:46:19;9.50;99.90
22145;DHT22;11238;48.730;11.566;2022-09-17T03:48:44;9.40;99.90
22145;DHT22;11238;48.730;11.566;2022-09-17T03:51:10;9.40;99.90
22145;DHT22;11238;48.730;11.566;2022-09-17T03:53:36;9.40;99.90
22145;DHT22;11238;48.730;11.566;2022-09-17T03:56:05;9.50;99.90
22145;DHT22;11238;48.730;11.566;2022-09-17T03:58:31;9.40;99.90
22145;DHT22;11238;48.730;11.566;2022-09-17T04:00:57;9.40;99.90
22145;DHT22;11238;48.730;11.566;2022-09-17T04:03:27;9.40;99.90
22145;DHT22;11238;48.730;11.566;2022-09-17T04:05:53;9.40;99.90
22145;DHT22;11238;48.730;11.566;2022-09-17T04:08:20;9.40;99.90
22145;DHT22;11238;48.730;11.566;2022-09-17T04:10:46;9.40;99.90
22145;DHT22;11238;48.730;11.566;2022-09-17T04:13:14;9.40;99.90
22145;DHT22;11238;48.730;11.566;2022-09-17T04:15:40;9.40;99.90
22145;DHT22;11238;48.730;11.566;2022-09-17T04:18:06;9.40;99.90
22145;DHT22;11238;48.730;11.566;2022-09-17T04:20:32;9.40;99.90
22145;DHT22;11238;48.730;11.566;2022-09-17T04:22:58;9.40;99.90
22145;DHT22;11238;48.730;11.566;2022-09-17T04:25:24;9.40;99.90
22145;DHT22;11238;48.730;11.566;2022-09-17T04:27:50;9.40;99.90
22145;DHT22;11238;48.730;11.566;2022-09-17T04:30:16;9.40;99.90
22145;DHT22;11238;48.730;11.566;2022-09-17T04:32:43;9.40;99.90
22145;DHT22;11238;48.730;11.566;2022-09-17T04:35:09;9.40;99.90
22145;DHT22;11238;48.730;11.566;2022-09-17T04:37:35;9.40;99.90
22145;DHT22;11238;48.730;11.566;2022-09-17T04:40:01;9.40;99.90
22145;DHT22;11238;48.730;11.566;2022-09-17T04:42:27;9.40;99.90
22145;DHT22;11238;48.730;11.566;2022-09-17T04:44:52;9.40;99.90
22145;DHT22;11238;48.730;11.566;2022-09-17T04:47:18;9.40;99.90
22145;DHT22;11238;48.730;11.566;2022-09-17T04:49:44;9.40;99.90
22145;DHT22;11238;48.730;11.566;2022-09-17T04:52:10;9.40;99.90
22145;DHT22;11238;48.730;11.566;2022-09-17T04:54:36;9.40;99.90
22145;DHT22;11238;48.730;11.566;2022-09-17T04:57:01;9.40;99.90
22145;DHT22;11238;48.730;11.566;2022-09-17T04:59:27;9.30;99.90
22145;DHT22;11238;48.730;11.566;2022-09-17T05:01:53;9.40;99.90
22145;DHT22;11238;48.730;11.566;2022-09-17T05:04:20;9.30;99.90
22145;DHT22;11238;48.730;11.566;2022-09-17T05:06:45;9.30;99.90
22145;DHT22;11238;48.730;11.566;2022-09-17T05:09:11;9.30;99.90
22145;DHT22;11238;48.730;11.566;2022-09-17T05:11:37;9.30;99.90
22145;DHT22;11238;48.730;11.566;2022-09-17T05:14:03;9.20;99.90
22145;DHT22;11238;48.730;11.566;2022-09-17T05:16:29;9.20;99.90
22145;DHT22;11238;48.730;11.566;2022-09-17T05:18:55;9.20;99.90
22145;DHT22;11238;48.730;11.566;2022-09-17T05:21:22;9.20;99.90
22145;DHT22;11238;48.730;11.566;2022-09-17T05:23:48;9.50;99.90
22145;DHT22;11238;48.730;11.566;2022-09-17T05:26:13;9.90;99.90
22145;DHT22;11238;48.730;11.566;2022-09-17T05:28:40;10.20;99.90
22145;DHT22;11238;48.730;11.566;2022-09-17T05:31:07;10.10;99.90
22145;DHT22;11238;48.730;11.566;2022-09-17T05:33:33;10.10;99.90
22145;DHT22;11238;48.730;11.566;2022-09-17T05:35:58;10.20;99.90
22145;DHT22;11238;48.730;11.566;2022-09-17T05:38:25;10.20;99.90
22145;DHT22;11238;48.730;11.566;2022-09-17T05:40:51;10.20;99.90
22145;DHT22;11238;48.730;11.566;2022-09-17T05:43:16;10.40;99.90
22145;DHT22;11238;48.730;11.566;2022-09-17T05:45:42;10.40;99.90
22145;DHT22;11238;48.730;11.566;2022-09-17T05:48:11;10.50;99.90
22145;DHT22;11238;48.730;11.566;2022-09-17T05:50:37;10.50;99.90
22145;DHT22;11238;48.730;11.566;2022-09-17T05:53:05;10.30;99.90
22145;DHT22;11238;48.730;11.566;2022-09-17T05:55:32;10.10;99.90
22145;DHT22;11238;48.730;11.566;2022-09-17T05:58:00;10.00;99.90
22145;DHT22;11238;48.730;11.566;2022-09-17T06:00:26;9.80;99.90
22145;DHT22;11238;48.730;11.566;2022-09-17T06:02:56;9.70;99.90
22145;DHT22;11238;48.730;11.566;2022-09-17T06:05:23;9.70;99.90
22145;DHT22;11238;48.730;11.566;2022-09-17T06:07:49;9.60;99.90
22145;DHT22;11238;48.730;11.566;2022-09-17T06:10:16;9.60;99.90
22145;DHT22;11238;48.730;11.566;2022-09-17T06:12:42;9.60;99.90
22145;DHT22;11238;48.730;11.566;2022-09-17T06:15:08;9.60;99.90
22145;DHT22;11238;48.730;11.566;2022-09-17T06:17:35;9.60;99.90
22145;DHT22;11238;48.730;11.566;2022-09-17T06:20:02;9.60;99.90
22145;DHT22;11238;48.730;11.566;2022-09-17T06:22:29;9.60;99.90
22145;DHT22;11238;48.730;11.566;2022-09-17T06:24:55;9.60;99.90
22145;DHT22;11238;48.730;11.566;2022-09-17T06:27:21;9.60;99.90
22145;DHT22;11238;48.730;11.566;2022-09-17T06:29:47;9.60;99.90
22145;DHT22;11238;48.730;11.566;2022-09-17T06:32:13;9.60;99.90
22145;DHT22;11238;48.730;11.566;2022-09-17T06:34:41;9.50;99.90
22145;DHT22;11238;48.730;11.566;2022-09-17T06:37:07;9.60;99.90
22145;DHT22;11238;48.730;11.566;2022-09-17T06:39:33;9.50;99.90
22145;DHT22;11238;48.730;11.566;2022-09-17T06:41:59;9.60;99.90
22145;DHT22;11238;48.730;11.566;2022-09-17T06:44:27;9.60;99.90
22145;DHT22;11238;48.730;11.566;2022-09-17T06:46:52;9.60;99.90
22145;DHT22;11238;48.730;11.566;2022-09-17T06:49:18;9.60;99.90
22145;DHT22;11238;48.730;11.566;2022-09-17T06:51:44;9.60;99.90
22145;DHT22;11238;48.730;11.566;2022-09-17T06:54:10;9.60;99.90
22145;DHT22;11238;48.730;11.566;2022-09-17T06:56:35;9.60;99.90
22145;DHT22;11238;48.730;11.566;2022-09-17T06:59:02;9.60;99.90
22145;DHT22;11238;48.730;11.566;2022-09-17T07:01:27;9.60;99.90
22145;DHT22;11238;48.730;11.566;2022-09-17T07:03:53;9.60;99.90
22145;DHT22;11238;48.730;11.566;2022-09-17T07:06:20;9.70;99.90
22145;DHT22;11238;48.730;11.566;2022-09-17T07:08:46;9.70;99.90
22145;DHT22;11238;48.730;11.566;2022-09-17T07:11:13;9.60;99.90
22145;DHT22;11238;48.730;11.566;2022-09-17T07:13:40;9.70;99.90
22145;DHT22;11238;48.730;11.566;2022-09-17T07:16:07;9.70;99.90
22145;DHT22;11238;48.730;11.566;2022-09-17T07:18:32;9.70;99.90
22145;DHT22;11238;48.730;11.566;2022-09-17T07:21:03;9.70;99.90
22145;DHT22;11238;48.730;11.566;2022-09-17T07:23:34;9.80;99.90
22145;DHT22;11238;48.730;11.566;2022-09-17T07:26:03;9.70;99.90
22145;DHT22;11238;48.730;11.566;2022-09-17T07:28:29;9.70;99.90
22145;DHT22;11238;48.730;11.566;2022-09-17T07:30:56;9.70;99.90
22145;DHT22;11238;48.730;11.566;2022-09-17T07:33:24;9.80;99.90
22145;DHT22;11238;48.730;11.566;2022-09-17T07:35:58;9.80;99.90
22145;DHT22;11238;48.730;11.566;2022-09-17T07:38:28;9.80;99.90
22145;DHT22;11238;48.730;11.566;2022-09-17T07:40:57;9.80;99.90
22145;DHT22;11238;48.730;11.566;2022-09-17T07:43:29;9.80;99.90
22145;DHT22;11238;48.730;11.566;2022-09-17T07:45:56;9.90;99.90
22145;DHT22;11238;48.730;11.566;2022-09-17T07:48:23;9.80;99.90
22145;DHT22;11238;48.730;11.566;2022-09-17T07:50:49;9.80;99.90
22145;DHT22;11238;48.730;11.566;2022-09-17T07:53:15;9.70;99.90
22145;DHT22;11238;48.730;11.566;2022-09-17T07:55:41;9.70;99.90
22145;DHT22;11238;48.730;11.566;2022-09-17T07:58:07;9.60;99.90
22145;DHT22;11238;48.730;11.566;2022-09-17T08:00:33;9.60;99.90
22145;DHT22;11238;48.730;11.566;2022-09-17T08:02:59;9.50;99.90
22145;DHT22;11238;48.730;11.566;2022-09-17T08:05:25;9.50;99.90
22145;DHT22;11238;48.730;11.566;2022-09-17T08:07:53;9.40;99.90
22145;DHT22;11238;48.730;11.566;2022-09-17T08:10:20;9.50;99.90
22145;DHT22;11238;48.730;11.566;2022-09-17T08:12:53;9.50;99.90
22145;DHT22;11238;48.730;11.566;2022-09-17T08:15:19;9.50;99.90
22145;DHT22;11238;48.730;11.566;2022-09-17T08:17:45;9.50;99.90
22145;DHT22;11238;48.730;11.566;2022-09-17T08:20:13;9.50;99.90
22145;DHT22;11238;48.730;11.566;2022-09-17T08:22:39;9.50;99.90
22145;DHT22;11238;48.730;11.566;2022-09-17T08:25:06;9.50;99.90
22145;DHT22;11238;48.730;11.566;2022-09-17T08:27:32;9.40;99.90
22145;DHT22;11238;48.730;11.566;2022-09-17T08:29:59;9.30;99.90
22145;DHT22;11238;48.730;11.566;2022-09-17T08:32:25;9.20;99.90
22145;DHT22;11238;48.730;11.566;2022-09-17T08:34:51;9.20;99.90
22145;DHT22;11238;48.730;11.566;2022-09-17T08:37:19;9.10;99.90
22145;DHT22;11238;48.730;11.566;2022-09-17T08:39:45;9.00;99.90
22145;DHT22;11238;48.730;11.566;2022-09-17T08:42:30;9.00;99.90
22145;DHT22;11238;48.730;11.566;2022-09-17T08:44:58;8.90;99.90
22145;DHT22;11238;48.730;11.566;2022-09-17T08:47:27;8.90;99.90
22145;DHT22;11238;48.730;11.566;2022-09-17T08:49:58;8.90;99.90
22145;DHT22;11238;48.730;11.566;2022-09-17T08:55:38;8.90;99.90
22145;DHT22;11238;48.730;11.566;2022-09-17T09:06:33;8.90;99.90
22145;DHT22;11238;48.730;11.566;2022-09-17T09:09:04;8.90;99.90
22145;DHT22;11238;48.730;11.566;2022-09-17T09:11:31;8.90;99.90
22145;DHT22;11238;48.730;11.566;2022-09-17T09:13:59;8.90;99.90
22145;DHT22;11238;48.730;11.566;2022-09-17T09:16:30;9.00;99.90
22145;DHT22;11238;48.730;11.566;2022-09-17T09:22:01;9.10;99.90
22145;DHT22;11238;48.730;11.566;2022-09-17T09:24:50;9.10;99.90
22145;DHT22;11238;48.730;11.566;2022-09-17T09:27:35;9.10;99.90
22145;DHT22;11238;48.730;11.566;2022-09-17T09:30:07;9.20;99.90
22145;DHT22;11238;48.730;11.566;2022-09-17T09:35:32;9.30;99.90
22145;DHT22;11238;48.730;11.566;2022-09-17T09:40:44;9.50;99.90
22145;DHT22;11238;48.730;11.566;2022-09-17T09:43:23;9.70;99.90
22145;DHT22;11238;48.730;11.566;2022-09-17T09:46:07;9.80;99.90
22145;DHT22;11238;48.730;11.566;2022-09-17T09:48:46;9.90;99.90
22145;DHT22;11238;48.730;11.566;2022-09-17T09:51:17;9.90;99.90
22145;DHT22;11238;48.730;11.566;2022-09-17T09:56:55;10.10;99.90
22145;DHT22;11238;48.730;11.566;2022-09-17T09:59:23;10.10;99.90
22145;DHT22;11238;48.730;11.566;2022-09-17T10:01:49;10.20;99.90
22145;DHT22;11238;48.730;11.566;2022-09-17T10:06:44;10.20;99.90
22145;DHT22;11238;48.730;11.566;2022-09-17T10:09:12;10.20;99.90
22145;DHT22;11238;48.730;11.566;2022-09-17T10:11:39;10.20;99.90
22145;DHT22;11238;48.730;11.566;2022-09-17T10:14:26;10.30;99.90
22145;DHT22;11238;48.730;11.566;2022-09-17T10:19:41;10.40;99.90
22145;DHT22;11238;48.730;11.566;2022-09-17T10:22:28;10.50;99.90
22145;DHT22;11238;48.730;11.566;2022-09-17T10:24:56;10.50;99.90
22145;DHT22;11238;48.730;11.566;2022-09-17T10:27:23;10.70;99.90
22145;DHT22;11238;48.730;11.566;2022-09-17T10:30:02;10.70;99.90
22145;DHT22;11238;48.730;11.566;2022-09-17T10:32:28;10.80;99.90
22145;DHT22;11238;48.730;11.566;2022-09-17T10:37:48;10.80;99.90
22145;DHT22;11238;48.730;11.566;2022-09-17T10:42:45;10.70;99.90
22145;DHT22;11238;48.730;11.566;2022-09-17T10:45:25;10.70;99.90
22145;DHT22;11238;48.730;11.566;2022-09-17T10:47:52;10.60;99.90
22145;DHT22;11238;48.730;11.566;2022-09-17T10:50:22;10.50;99.90
22145;DHT22;11238;48.730;11.566;2022-09-17T10:52:51;10.50;99.90
22145;DHT22;11238;48.730;11.566;2022-09-17T10:58:03;10.60;99.90
22145;DHT22;11238;48.730;11.566;2022-09-17T11:08:39;10.60;99.90
22145;DHT22;11238;48.730;11.566;2022-09-17T11:11:28;10.70;99.90
22145;DHT22;11238;48.730;11.566;2022-09-17T11:16:53;10.70;99.90
22145;DHT22;11238;48.730;11.566;2022-09-17T11:22:14;10.80;99.90
22145;DHT22;11238;48.730;11.566;2022-09-17T11:27:47;11.00;99.90
22145;DHT22;11238;48.730;11.566;2022-09-17T11:30:21;11.20;99.90
22145;DHT22;11238;48.730;11.566;2022-09-17T11:35:35;11.40;99.90
22145;DHT22;11238;48.730;11.566;2022-09-17T11:40:43;11.50;99.90
22145;DHT22;11238;48.730;11.566;2022-09-17T11:43:28;11.50;99.90
22145;DHT22;11238;48.730;11.566;2022-09-17T11:45:59;11.50;99.90
22145;DHT22;11238;48.730;11.566;2022-09-17T11:48:42;11.50;99.90
22145;DHT22;11238;48.730;11.566;2022-09-17T11:53:49;11.40;99.90
22145;DHT22;11238;48.730;11.566;2022-09-17T11:56:35;11.30;99.90
22145;DHT22;11238;48.730;11.566;2022-09-17T11:59:24;11.10;99.90
22145;DHT22;11238;48.730;11.566;2022-09-17T12:01:55;10.90;99.90
22145;DHT22;11238;48.730;11.566;2022-09-17T12:09:39;10.50;99.90
22145;DHT22;11238;48.730;11.566;2022-09-17T12:12:16;10.40;99.90
22145;DHT22;11238;48.730;11.566;2022-09-17T12:14:50;10.40;99.90
22145;DHT22;11238;48.730;11.566;2022-09-17T12:17:21;10.40;99.90
22145;DHT22;11238;48.730;11.566;2022-09-17T12:19:58;10.40;99.90
22145;DHT22;11238;48.730;11.566;2022-09-17T12:22:29;10.50;99.90
22145;DHT22;11238;48.730;11.566;2022-09-17T12:24:57;10.60;99.90
22145;DHT22;11238;48.730;11.566;2022-09-17T12:27:37;10.80;99.90
22145;DHT22;11238;48.730;11.566;2022-09-17T12:32:33;11.10;99.90
22145;DHT22;11238;48.730;11.566;2022-09-17T12:52:49;12.10;99.90
22145;DHT22;11238;48.730;11.566;2022-09-17T12:55:49;12.20;99.90
22145;DHT22;11238;48.730;11.566;2022-09-17T13:01:29;12.40;99.90
22145;DHT22;11238;48.730;11.566;2022-09-17T13:04:10;12.40;99.90
22145;DHT22;11238;48.730;11.566;2022-09-17T13:10:02;12.70;99.90
22145;DHT22;11238;48.730;11.566;2022-09-17T13:17:54;13.10;99.90
22145;DHT22;11238;48.730;11.566;2022-09-17T13:22:51;13.20;99.90
22145;DHT22;11238;48.730;11.566;2022-09-17T13:25:20;13.10;99.90
22145;DHT22;11238;48.730;11.566;2022-09-17T13:27:47;13.20;99.90
22145;DHT22;11238;48.730;11.566;2022-09-17T13:30:19;13.20;99.90
22145;DHT22;11238;48.730;11.566;2022-09-17T13:32:47;13.30;99.90
22145;DHT22;11238;48.730;11.566;2022-09-17T13:40:19;13.10;99.90
22145;DHT22;11238;48.730;11.566;2022-09-17T13:42:49;13.00;99.90
22145;DHT22;11238;48.730;11.566;2022-09-17T13:45:17;12.90;99.90
22145;DHT22;11238;48.730;11.566;2022-09-17T13:47:58;12.80;99.90
22145;DHT22;11238;48.730;11.566;2022-09-17T13:50:27;12.80;99.90
22145;DHT22;11238;48.730;11.566;2022-09-17T13:53:06;12.80;99.90
22145;DHT22;11238;48.730;11.566;2022-09-17T13:55:36;12.90;99.90
22145;DHT22;11238;48.730;11.566;2022-09-17T13:58:05;12.90;99.90
22145;DHT22;11238;48.730;11.566;2022-09-17T14:00:54;12.90;99.90
22145;DHT22;11238;48.730;11.566;2022-09-17T14:13:52;12.50;99.90
22145;DHT22;11238;48.730;11.566;2022-09-17T14:27:16;12.50;99.90
22145;DHT22;11238;48.730;11.566;2022-09-17T14:29:49;12.50;99.90
22145;DHT22;11238;48.730;11.566;2022-09-17T14:32:26;12.50;99.90
22145;DHT22;11238;48.730;11.566;2022-09-17T14:34:59;12.50;99.90
22145;DHT22;11238;48.730;11.566;2022-09-17T14:37:26;12.50;99.90
22145;DHT22;11238;48.730;11.566;2022-09-17T14:39:52;12.50;99.90
22145;DHT22;11238;48.730;11.566;2022-09-17T14:42:22;12.50;99.90
22145;DHT22;11238;48.730;11.566;2022-09-17T14:44:57;12.50;99.90
22145;DHT22;11238;48.730;11.566;2022-09-17T14:47:24;12.50;99.90
22145;DHT22;11238;48.730;11.566;2022-09-17T14:49:51;12.50;99.90
22145;DHT22;11238;48.730;11.566;2022-09-17T14:52:31;12.50;99.90
22145;DHT22;11238;48.730;11.566;2022-09-17T14:55:18;12.40;99.90
22145;DHT22;11238;48.730;11.566;2022-09-17T14:57:49;12.30;99.90
22145;DHT22;11238;48.730;11.566;2022-09-17T15:00:21;12.20;99.90
22145;DHT22;11238;48.730;11.566;2022-09-17T15:02:54;12.10;99.90
22145;DHT22;11238;48.730;11.566;2022-09-17T15:05:34;12.10;99.90
22145;DHT22;11238;48.730;11.566;2022-09-17T15:08:15;11.90;99.90
22145;DHT22;11238;48.730;11.566;2022-09-17T15:10:58;11.70;99.90
22145;DHT22;11238;48.730;11.566;2022-09-17T15:13:28;11.70;99.90
22145;DHT22;11238;48.730;11.566;2022-09-17T15:19:02;11.70;99.90
22145;DHT22;11238;48.730;11.566;2022-09-17T15:21:40;11.80;99.90
22145;DHT22;11238;48.730;11.566;2022-09-17T15:26:49;11.90;99.90
22145;DHT22;11238;48.730;11.566;2022-09-17T15:29:20;11.90;99.90
22145;DHT22;11238;48.730;11.566;2022-09-17T15:31:47;12.00;99.90
22145;DHT22;11238;48.730;11.566;2022-09-17T15:34:14;12.00;99.90
22145;DHT22;11238;48.730;11.566;2022-09-17T15:36:39;12.00;99.90
22145;DHT22;11238;48.730;11.566;2022-09-17T15:39:27;12.00;99.90
22145;DHT22;11238;48.730;11.566;2022-09-17T15:41:55;11.90;99.90
22145;DHT22;11238;48.730;11.566;2022-09-17T15:44:23;11.90;99.90
22145;DHT22;11238;48.730;11.566;2022-09-17T15:46:51;11.80;99.90
22145;DHT22;11238;48.730;11.566;2022-09-17T15:49:52;11.80;99.90
22145;DHT22;11238;48.730;11.566;2022-09-17T15:52:32;11.80;99.90
22145;DHT22;11238;48.730;11.566;2022-09-17T15:54:59;11.80;99.90
22145;DHT22;11238;48.730;11.566;2022-09-17T15:57:28;11.80;99.90
22145;DHT22;11238;48.730;11.566;2022-09-17T15:59:55;11.80;99.90
22145;DHT22;11238;48.730;11.566;2022-09-17T16:02:31;11.80;99.90
22145;DHT22;11238;48.730;11.566;2022-09-17T16:07:46;11.80;99.90
22145;DHT22;11238;48.730;11.566;2022-09-17T16:10:13;11.80;99.90
22145;DHT22;11238;48.730;11.566;2022-09-17T16:12:40;11.70;99.90
22145;DHT22;11238;48.730;11.566;2022-09-17T16:15:07;11.70;99.90
22145;DHT22;11238;48.730;11.566;2022-09-17T16:22:45;11.70;99.90
22145;DHT22;11238;48.730;11.566;2022-09-17T16:25:12;11.60;99.90
22145;DHT22;11238;48.730;11.566;2022-09-17T16:27:51;11.60;99.90
22145;DHT22;11238;48.730;11.566;2022-09-17T16:30:20;11.60;99.90
22145;DHT22;11238;48.730;11.566;2022-09-17T16:32:45;11.60;99.90
22145;DHT22;11238;48.730;11.566;2022-09-17T16:35:16;11.50;99.90
22145;DHT22;11238;48.730;11.566;2022-09-17T16:37:50;11.50;99.90
22145;DHT22;11238;48.730;11.566;2022-09-17T16:40:16;11.50;99.90
22145;DHT22;11238;48.730;11.566;2022-09-17T16:42:43;11.50;99.90
22145;DHT22;11238;48.730;11.566;2022-09-17T16:45:09;11.40;99.90
22145;DHT22;11238;48.730;11.566;2022-09-17T16:47:39;11.30;99.90
22145;DHT22;11238;48.730;11.566;2022-09-17T16:50:12;11.30;99.90
22145;DHT22;11238;48.730;11.566;2022-09-17T16:52:38;11.20;99.90
22145;DHT22;11238;48.730;11.566;2022-09-17T16:55:05;11.20;99.90
22145;DHT22;11238;48.730;11.566;2022-09-17T16:57:32;11.20;99.90
22145;DHT22;11238;48.730;11.566;2022-09-17T16:59:58;11.10;99.90
22145;DHT22;11238;48.730;11.566;2022-09-17T17:02:24;11.10;99.90
22145;DHT22;11238;48.730;11.566;2022-09-17T17:04:50;11.10;99.90
22145;DHT22;11238;48.730;11.566;2022-09-17T17:07:15;11.00;99.90
22145;DHT22;11238;48.730;11.566;2022-09-17T17:09:41;11.00;99.90
22145;DHT22;11238;48.730;11.566;2022-09-17T17:12:07;11.00;99.90
22145;DHT22;11238;48.730;11.566;2022-09-17T17:14:33;10.90;99.90
22145;DHT22;11238;48.730;11.566;2022-09-17T17:16:59;10.90;99.90
22145;DHT22;11238;48.730;11.566;2022-09-17T17:19:25;10.90;99.90
22145;DHT22;11238;48.730;11.566;2022-09-17T17:21:52;10.80;99.90
22145;DHT22;11238;48.730;11.566;2022-09-17T17:24:18;10.80;99.90
22145;DHT22;11238;48.730;11.566;2022-09-17T17:26:46;10.80;99.90
22145;DHT22;11238;48.730;11.566;2022-09-17T17:29:11;10.70;99.90
22145;DHT22;11238;48.730;11.566;2022-09-17T17:31:38;10.70;99.90
22145;DHT22;11238;48.730;11.566;2022-09-17T17:34:03;10.70;99.90
22145;DHT22;11238;48.730;11.566;2022-09-17T17:36:29;10.70;99.90
22145;DHT22;11238;48.730;11.566;2022-09-17T17:38:57;10.60;99.90
22145;DHT22;11238;48.730;11.566;2022-09-17T17:41:24;10.60;99.90
22145;DHT22;11238;48.730;11.566;2022-09-17T17:43:55;10.60;99.90
22145;DHT22;11238;48.730;11.566;2022-09-17T17:46:22;10.60;99.90
22145;DHT22;11238;48.730;11.566;2022-09-17T17:48:49;10.60;99.90
22145;DHT22;11238;48.730;11.566;2022-09-17T17:51:15;10.50;99.90
22145;DHT22;11238;48.730;11.566;2022-09-17T17:53:44;10.50;99.90
22145;DHT22;11238;48.730;11.566;2022-09-17T17:56:11;10.50;99.90
22145;DHT22;11238;48.730;11.566;2022-09-17T17:58:38;10.60;99.90
22145;DHT22;11238;48.730;11.566;2022-09-17T18:01:19;10.50;99.90
22145;DHT22;11238;48.730;11.566;2022-09-17T18:03:46;10.50;99.90
22145;DHT22;11238;48.730;11.566;2022-09-17T18:06:12;10.50;99.90
22145;DHT22;11238;48.730;11.566;2022-09-17T18:08:40;10.40;99.90
22145;DHT22;11238;48.730;11.566;2022-09-17T18:11:07;10.40;99.90
22145;DHT22;11238;48.730;11.566;2022-09-17T18:13:34;10.30;99.90
22145;DHT22;11238;48.730;11.566;2022-09-17T18:16:01;10.30;99.90
22145;DHT22;11238;48.730;11.566;2022-09-17T18:18:35;10.20;99.90
22145;DHT22;11238;48.730;11.566;2022-09-17T18:21:04;10.20;99.90
22145;DHT22;11238;48.730;11.566;2022-09-17T18:23:32;10.20;99.90
22145;DHT22;11238;48.730;11.566;2022-09-17T18:25:59;10.20;99.90
22145;DHT22;11238;48.730;11.566;2022-09-17T18:28:27;10.20;99.90
22145;DHT22;11238;48.730;11.566;2022-09-17T18:30:53;10.20;99.90
22145;DHT22;11238;48.730;11.566;2022-09-17T18:33:25;10.10;99.90
22145;DHT22;11238;48.730;11.566;2022-09-17T18:35:52;10.10;99.90
22145;DHT22;11238;48.730;11.566;2022-09-17T18:38:22;10.20;99.90
22145;DHT22;11238;48.730;11.566;2022-09-17T18:40:49;10.20;99.90
22145;DHT22;11238;48.730;11.566;2022-09-17T18:43:15;10.10;99.90
22145;DHT22;11238;48.730;11.566;2022-09-17T18:45:41;10.10;99.90
22145;DHT22;11238;48.730;11.566;2022-09-17T18:48:07;10.20;99.90